sensor_id;sensor_type;location;lat;lon;timestamp;P1;durP1;ratioP1;P2;durP2;ratioP2
12986;SDS011;58897;51.960;5.582;2022-11-15T00:00:58;27.50;;;10.47;;
12986;SDS011;58897;51.960;5.582;2022-11-15T00:03:25;28.57;;;12.00;;
12986;SDS011;58897;51.960;5.582;2022-11-15T00:05:53;23.50;;;10.73;;
12986;SDS011;58897;51.960;5.582;2022-11-15T00:08:20;26.77;;;12.57;;
12986;SDS011;58897;51.960;5.582;2022-11-15T00:10:56;28.87;;;11.47;;
12986;SDS011;58897;51.960;5.582;2022-11-15T00:13:23;25.20;;;11.70;;
12986;SDS011;58897;51.960;5.582;2022-11-15T00:15:50;23.30;;;10.87;;
12986;SDS011;58897;51.960;5.582;2022-11-15T00:18:17;24.70;;;11.07;;
12986;SDS011;58897;51.960;5.582;2022-11-15T00:20:44;26.20;;;11.63;;
12986;SDS011;58897;51.960;5.582;2022-11-15T00:23:11;22.90;;;10.33;;
12986;SDS011;58897;51.960;5.582;2022-11-15T00:25:37;23.03;;;10.60;;
12986;SDS011;58897;51.960;5.582;2022-11-15T00:28:04;24.00;;;11.00;;
12986;SDS011;58897;51.960;5.582;2022-11-15T00:30:30;19.87;;;10.63;;
12986;SDS011;58897;51.960;5.582;2022-11-15T00:33:01;23.97;;;11.33;;
12986;SDS011;58897;51.960;5.582;2022-11-15T00:35:31;23.00;;;10.10;;
12986;SDS011;58897;51.960;5.582;2022-11-15T00:37:59;22.40;;;10.97;;
12986;SDS011;58897;51.960;5.582;2022-11-15T00:40:27;27.57;;;11.67;;
12986;SDS011;58897;51.960;5.582;2022-11-15T00:42:54;23.10;;;10.30;;
12986;SDS011;58897;51.960;5.582;2022-11-15T00:45:21;23.60;;;10.30;;
12986;SDS011;58897;51.960;5.582;2022-11-15T00:47:47;23.40;;;11.27;;
12986;SDS011;58897;51.960;5.582;2022-11-15T00:50:14;20.77;;;10.60;;
12986;SDS011;58897;51.960;5.582;2022-11-15T00:52:41;21.70;;;10.77;;
12986;SDS011;58897;51.960;5.582;2022-11-15T00:55:15;26.93;;;11.97;;
12986;SDS011;58897;51.960;5.582;2022-11-15T00:57:42;20.43;;;10.47;;
12986;SDS011;58897;51.960;5.582;2022-11-15T01:00:09;24.37;;;11.90;;
12986;SDS011;58897;51.960;5.582;2022-11-15T01:02:36;23.60;;;11.80;;
12986;SDS011;58897;51.960;5.582;2022-11-15T01:05:03;22.40;;;11.13;;
12986;SDS011;58897;51.960;5.582;2022-11-15T01:07:30;22.13;;;10.23;;
12986;SDS011;58897;51.960;5.582;2022-11-15T01:09:56;23.37;;;10.90;;
12986;SDS011;58897;51.960;5.582;2022-11-15T01:12:23;22.50;;;11.40;;
12986;SDS011;58897;51.960;5.582;2022-11-15T01:14:50;25.67;;;11.40;;
12986;SDS011;58897;51.960;5.582;2022-11-15T01:17:16;25.37;;;11.30;;
12986;SDS011;58897;51.960;5.582;2022-11-15T01:19:42;24.80;;;11.50;;
12986;SDS011;58897;51.960;5.582;2022-11-15T01:22:09;26.80;;;11.17;;
12986;SDS011;58897;51.960;5.582;2022-11-15T01:24:35;22.90;;;11.23;;
12986;SDS011;58897;51.960;5.582;2022-11-15T01:27:02;23.00;;;11.17;;
12986;SDS011;58897;51.960;5.582;2022-11-15T01:29:28;24.53;;;10.23;;
12986;SDS011;58897;51.960;5.582;2022-11-15T01:31:55;19.10;;;11.70;;
12986;SDS011;58897;51.960;5.582;2022-11-15T01:34:21;18.57;;;10.23;;
12986;SDS011;58897;51.960;5.582;2022-11-15T01:36:48;22.23;;;11.27;;
12986;SDS011;58897;51.960;5.582;2022-11-15T01:39:14;19.53;;;11.10;;
12986;SDS011;58897;51.960;5.582;2022-11-15T01:41:41;21.43;;;10.47;;
12986;SDS011;58897;51.960;5.582;2022-11-15T01:47:00;25.33;;;11.47;;
12986;SDS011;58897;51.960;5.582;2022-11-15T01:49:30;20.30;;;11.07;;
12986;SDS011;58897;51.960;5.582;2022-11-15T01:52:00;20.57;;;10.90;;
12986;SDS011;58897;51.960;5.582;2022-11-15T01:54:29;22.27;;;11.17;;
12986;SDS011;58897;51.960;5.582;2022-11-15T01:56:59;20.30;;;10.10;;
12986;SDS011;58897;51.960;5.582;2022-11-15T01:59:32;20.73;;;10.37;;
12986;SDS011;58897;51.960;5.582;2022-11-15T02:01:59;22.23;;;10.30;;
12986;SDS011;58897;51.960;5.582;2022-11-15T02:04:27;24.87;;;10.73;;
12986;SDS011;58897;51.960;5.582;2022-11-15T02:06:56;18.67;;;10.63;;
12986;SDS011;58897;51.960;5.582;2022-11-15T02:09:23;17.53;;;10.23;;
12986;SDS011;58897;51.960;5.582;2022-11-15T02:11:49;20.27;;;11.50;;
12986;SDS011;58897;51.960;5.582;2022-11-15T02:14:18;18.63;;;9.87;;
12986;SDS011;58897;51.960;5.582;2022-11-15T02:16:49;24.63;;;10.97;;
12986;SDS011;58897;51.960;5.582;2022-11-15T02:30:51;19.03;;;11.73;;
12986;SDS011;58897;51.960;5.582;2022-11-15T02:36:12;19.53;;;10.63;;
12986;SDS011;58897;51.960;5.582;2022-11-15T02:41:24;18.73;;;10.73;;
12986;SDS011;58897;51.960;5.582;2022-11-15T02:44:07;20.33;;;10.77;;
12986;SDS011;58897;51.960;5.582;2022-11-15T02:46:56;16.50;;;9.37;;
12986;SDS011;58897;51.960;5.582;2022-11-15T02:49:48;19.80;;;11.47;;
12986;SDS011;58897;51.960;5.582;2022-11-15T02:52:18;19.80;;;10.00;;
12986;SDS011;58897;51.960;5.582;2022-11-15T02:54:54;15.23;;;9.80;;
12986;SDS011;58897;51.960;5.582;2022-11-15T03:00:27;15.60;;;9.93;;
12986;SDS011;58897;51.960;5.582;2022-11-15T03:11:13;18.20;;;10.00;;
12986;SDS011;58897;51.960;5.582;2022-11-15T03:22:06;15.27;;;9.83;;
12986;SDS011;58897;51.960;5.582;2022-11-15T03:24:35;16.73;;;10.03;;
12986;SDS011;58897;51.960;5.582;2022-11-15T03:27:05;17.43;;;10.60;;
12986;SDS011;58897;51.960;5.582;2022-11-15T03:29:35;20.23;;;11.40;;
12986;SDS011;58897;51.960;5.582;2022-11-15T03:32:08;18.00;;;10.70;;
12986;SDS011;58897;51.960;5.582;2022-11-15T03:34:41;19.30;;;10.63;;
12986;SDS011;58897;51.960;5.582;2022-11-15T03:37:14;16.97;;;10.83;;
12986;SDS011;58897;51.960;5.582;2022-11-15T03:39:42;18.33;;;10.83;;
12986;SDS011;58897;51.960;5.582;2022-11-15T03:47:43;18.23;;;11.60;;
12986;SDS011;58897;51.960;5.582;2022-11-15T03:50:16;18.80;;;11.20;;
12986;SDS011;58897;51.960;5.582;2022-11-15T03:52:46;23.80;;;12.90;;
12986;SDS011;58897;51.960;5.582;2022-11-15T03:55:18;18.37;;;10.93;;
12986;SDS011;58897;51.960;5.582;2022-11-15T03:57:47;21.70;;;10.10;;
12986;SDS011;58897;51.960;5.582;2022-11-15T04:00:16;22.23;;;12.27;;
12986;SDS011;58897;51.960;5.582;2022-11-15T04:02:43;19.57;;;11.27;;
12986;SDS011;58897;51.960;5.582;2022-11-15T04:05:09;21.93;;;11.60;;
12986;SDS011;58897;51.960;5.582;2022-11-15T04:07:36;22.50;;;11.57;;
12986;SDS011;58897;51.960;5.582;2022-11-15T04:10:03;18.10;;;10.93;;
12986;SDS011;58897;51.960;5.582;2022-11-15T04:12:30;23.43;;;11.73;;
12986;SDS011;58897;51.960;5.582;2022-11-15T04:17:37;19.30;;;11.07;;
12986;SDS011;58897;51.960;5.582;2022-11-15T04:20:04;16.87;;;10.57;;
12986;SDS011;58897;51.960;5.582;2022-11-15T04:22:54;19.10;;;10.87;;
12986;SDS011;58897;51.960;5.582;2022-11-15T04:25:39;17.13;;;11.03;;
12986;SDS011;58897;51.960;5.582;2022-11-15T04:28:06;18.87;;;11.77;;
12986;SDS011;58897;51.960;5.582;2022-11-15T04:30:33;20.70;;;12.10;;
12986;SDS011;58897;51.960;5.582;2022-11-15T04:32:59;20.93;;;10.90;;
12986;SDS011;58897;51.960;5.582;2022-11-15T04:35:26;19.17;;;11.07;;
12986;SDS011;58897;51.960;5.582;2022-11-15T04:37:53;19.03;;;12.00;;
12986;SDS011;58897;51.960;5.582;2022-11-15T04:40:20;20.90;;;11.10;;
12986;SDS011;58897;51.960;5.582;2022-11-15T04:42:46;21.53;;;11.70;;
12986;SDS011;58897;51.960;5.582;2022-11-15T04:45:13;21.83;;;12.00;;
12986;SDS011;58897;51.960;5.582;2022-11-15T04:47:39;18.20;;;11.07;;
12986;SDS011;58897;51.960;5.582;2022-11-15T04:50:08;23.23;;;12.93;;
12986;SDS011;58897;51.960;5.582;2022-11-15T04:52:42;19.07;;;11.90;;
12986;SDS011;58897;51.960;5.582;2022-11-15T04:55:10;20.40;;;11.20;;
12986;SDS011;58897;51.960;5.582;2022-11-15T04:57:37;18.97;;;11.53;;
12986;SDS011;58897;51.960;5.582;2022-11-15T05:00:05;20.70;;;12.33;;
12986;SDS011;58897;51.960;5.582;2022-11-15T05:02:33;21.20;;;11.70;;
12986;SDS011;58897;51.960;5.582;2022-11-15T05:05:18;21.67;;;11.67;;
12986;SDS011;58897;51.960;5.582;2022-11-15T05:07:45;20.40;;;12.20;;
12986;SDS011;58897;51.960;5.582;2022-11-15T05:10:11;18.93;;;11.83;;
12986;SDS011;58897;51.960;5.582;2022-11-15T05:12:38;23.63;;;11.13;;
12986;SDS011;58897;51.960;5.582;2022-11-15T05:15:05;19.57;;;11.97;;
12986;SDS011;58897;51.960;5.582;2022-11-15T05:17:32;22.30;;;11.40;;
12986;SDS011;58897;51.960;5.582;2022-11-15T05:19:58;18.07;;;11.30;;
12986;SDS011;58897;51.960;5.582;2022-11-15T05:22:25;19.60;;;11.93;;
12986;SDS011;58897;51.960;5.582;2022-11-15T05:24:52;22.17;;;12.27;;
12986;SDS011;58897;51.960;5.582;2022-11-15T05:27:18;19.07;;;11.73;;
12986;SDS011;58897;51.960;5.582;2022-11-15T05:29:44;21.17;;;11.57;;
12986;SDS011;58897;51.960;5.582;2022-11-15T05:32:11;22.50;;;11.47;;
12986;SDS011;58897;51.960;5.582;2022-11-15T05:34:39;22.50;;;11.93;;
12986;SDS011;58897;51.960;5.582;2022-11-15T05:37:05;24.40;;;12.87;;
12986;SDS011;58897;51.960;5.582;2022-11-15T05:39:32;20.23;;;12.03;;
12986;SDS011;58897;51.960;5.582;2022-11-15T05:42:09;23.13;;;13.10;;
12986;SDS011;58897;51.960;5.582;2022-11-15T05:44:38;24.53;;;12.80;;
12986;SDS011;58897;51.960;5.582;2022-11-15T05:47:10;24.83;;;13.33;;
12986;SDS011;58897;51.960;5.582;2022-11-15T05:49:40;24.97;;;12.30;;
12986;SDS011;58897;51.960;5.582;2022-11-15T05:52:10;20.20;;;11.80;;
12986;SDS011;58897;51.960;5.582;2022-11-15T05:54:39;24.00;;;12.87;;
12986;SDS011;58897;51.960;5.582;2022-11-15T05:57:06;22.50;;;12.03;;
12986;SDS011;58897;51.960;5.582;2022-11-15T05:59:33;23.30;;;12.57;;
12986;SDS011;58897;51.960;5.582;2022-11-15T06:02:01;22.23;;;12.53;;
12986;SDS011;58897;51.960;5.582;2022-11-15T06:04:28;24.50;;;13.13;;
12986;SDS011;58897;51.960;5.582;2022-11-15T06:06:54;23.03;;;12.57;;
12986;SDS011;58897;51.960;5.582;2022-11-15T06:09:21;19.33;;;12.03;;
12986;SDS011;58897;51.960;5.582;2022-11-15T06:11:47;23.87;;;12.23;;
12986;SDS011;58897;51.960;5.582;2022-11-15T06:14:14;24.07;;;12.63;;
12986;SDS011;58897;51.960;5.582;2022-11-15T06:16:41;22.67;;;12.63;;
12986;SDS011;58897;51.960;5.582;2022-11-15T06:19:07;20.00;;;11.17;;
12986;SDS011;58897;51.960;5.582;2022-11-15T06:21:34;20.90;;;12.37;;
12986;SDS011;58897;51.960;5.582;2022-11-15T06:24:00;20.73;;;11.90;;
12986;SDS011;58897;51.960;5.582;2022-11-15T06:26:27;24.40;;;12.00;;
12986;SDS011;58897;51.960;5.582;2022-11-15T06:28:53;17.60;;;10.60;;
12986;SDS011;58897;51.960;5.582;2022-11-15T06:31:20;20.73;;;11.60;;
12986;SDS011;58897;51.960;5.582;2022-11-15T06:33:46;22.83;;;11.63;;
12986;SDS011;58897;51.960;5.582;2022-11-15T06:36:13;22.73;;;12.50;;
12986;SDS011;58897;51.960;5.582;2022-11-15T06:38:45;19.70;;;11.77;;
12986;SDS011;58897;51.960;5.582;2022-11-15T06:41:13;23.33;;;11.20;;
12986;SDS011;58897;51.960;5.582;2022-11-15T06:43:40;21.17;;;12.03;;
12986;SDS011;58897;51.960;5.582;2022-11-15T06:46:07;28.60;;;13.27;;
12986;SDS011;58897;51.960;5.582;2022-11-15T06:48:34;25.47;;;12.53;;
12986;SDS011;58897;51.960;5.582;2022-11-15T06:51:02;20.90;;;11.60;;
12986;SDS011;58897;51.960;5.582;2022-11-15T06:53:30;20.27;;;11.67;;
12986;SDS011;58897;51.960;5.582;2022-11-15T06:56:01;22.40;;;11.70;;
12986;SDS011;58897;51.960;5.582;2022-11-15T06:58:29;22.57;;;10.93;;
12986;SDS011;58897;51.960;5.582;2022-11-15T07:00:59;19.10;;;10.73;;
12986;SDS011;58897;51.960;5.582;2022-11-15T07:03:27;22.47;;;12.37;;
12986;SDS011;58897;51.960;5.582;2022-11-15T07:05:55;19.33;;;11.27;;
12986;SDS011;58897;51.960;5.582;2022-11-15T07:08:31;18.00;;;10.80;;
12986;SDS011;58897;51.960;5.582;2022-11-15T07:10:59;20.90;;;11.90;;
12986;SDS011;58897;51.960;5.582;2022-11-15T07:13:28;19.93;;;11.63;;
12986;SDS011;58897;51.960;5.582;2022-11-15T07:15:56;18.93;;;12.03;;
12986;SDS011;58897;51.960;5.582;2022-11-15T07:18:22;23.27;;;13.03;;
12986;SDS011;58897;51.960;5.582;2022-11-15T07:20:49;21.50;;;11.57;;
12986;SDS011;58897;51.960;5.582;2022-11-15T07:23:15;22.13;;;12.87;;
12986;SDS011;58897;51.960;5.582;2022-11-15T07:25:42;22.10;;;11.60;;
12986;SDS011;58897;51.960;5.582;2022-11-15T07:28:09;22.33;;;11.30;;
12986;SDS011;58897;51.960;5.582;2022-11-15T07:30:35;23.40;;;12.10;;
12986;SDS011;58897;51.960;5.582;2022-11-15T07:33:09;20.27;;;12.53;;
12986;SDS011;58897;51.960;5.582;2022-11-15T07:35:35;19.97;;;11.63;;
12986;SDS011;58897;51.960;5.582;2022-11-15T07:38:02;20.80;;;11.63;;
12986;SDS011;58897;51.960;5.582;2022-11-15T07:40:29;19.70;;;12.00;;
12986;SDS011;58897;51.960;5.582;2022-11-15T07:43:00;24.60;;;12.07;;
12986;SDS011;58897;51.960;5.582;2022-11-15T07:45:27;23.27;;;11.47;;
12986;SDS011;58897;51.960;5.582;2022-11-15T07:47:54;26.00;;;12.83;;
12986;SDS011;58897;51.960;5.582;2022-11-15T07:50:22;19.37;;;11.30;;
12986;SDS011;58897;51.960;5.582;2022-11-15T07:52:53;20.73;;;11.03;;
12986;SDS011;58897;51.960;5.582;2022-11-15T07:55:22;22.77;;;11.50;;
12986;SDS011;58897;51.960;5.582;2022-11-15T07:57:49;19.20;;;11.20;;
12986;SDS011;58897;51.960;5.582;2022-11-15T08:00:16;20.30;;;10.77;;
12986;SDS011;58897;51.960;5.582;2022-11-15T08:02:43;22.10;;;11.43;;
12986;SDS011;58897;51.960;5.582;2022-11-15T08:05:10;20.53;;;12.23;;
12986;SDS011;58897;51.960;5.582;2022-11-15T08:07:37;21.77;;;12.37;;
12986;SDS011;58897;51.960;5.582;2022-11-15T08:10:04;22.63;;;11.23;;
12986;SDS011;58897;51.960;5.582;2022-11-15T08:12:33;17.83;;;10.50;;
12986;SDS011;58897;51.960;5.582;2022-11-15T08:15:00;23.80;;;11.90;;
12986;SDS011;58897;51.960;5.582;2022-11-15T08:17:26;19.57;;;10.87;;
12986;SDS011;58897;51.960;5.582;2022-11-15T08:19:53;22.37;;;10.60;;
12986;SDS011;58897;51.960;5.582;2022-11-15T08:22:19;24.10;;;12.40;;
12986;SDS011;58897;51.960;5.582;2022-11-15T08:24:46;17.20;;;10.27;;
12986;SDS011;58897;51.960;5.582;2022-11-15T08:27:12;22.97;;;10.80;;
12986;SDS011;58897;51.960;5.582;2022-11-15T08:29:42;20.77;;;10.07;;
12986;SDS011;58897;51.960;5.582;2022-11-15T08:32:10;17.90;;;9.57;;
12986;SDS011;58897;51.960;5.582;2022-11-15T08:34:37;20.87;;;10.73;;
12986;SDS011;58897;51.960;5.582;2022-11-15T08:37:04;21.03;;;9.87;;
12986;SDS011;58897;51.960;5.582;2022-11-15T08:39:31;16.07;;;9.43;;
12986;SDS011;58897;51.960;5.582;2022-11-15T08:41:58;20.70;;;10.07;;
12986;SDS011;58897;51.960;5.582;2022-11-15T08:44:25;17.70;;;9.87;;
12986;SDS011;58897;51.960;5.582;2022-11-15T08:46:51;17.20;;;9.70;;
12986;SDS011;58897;51.960;5.582;2022-11-15T08:49:18;20.23;;;10.37;;
12986;SDS011;58897;51.960;5.582;2022-11-15T08:51:45;21.50;;;9.90;;
12986;SDS011;58897;51.960;5.582;2022-11-15T08:54:11;16.73;;;9.70;;
12986;SDS011;58897;51.960;5.582;2022-11-15T08:56:38;19.67;;;10.67;;
12986;SDS011;58897;51.960;5.582;2022-11-15T08:59:05;15.90;;;9.67;;
12986;SDS011;58897;51.960;5.582;2022-11-15T09:01:31;19.03;;;10.83;;
12986;SDS011;58897;51.960;5.582;2022-11-15T09:03:58;16.50;;;9.77;;
12986;SDS011;58897;51.960;5.582;2022-11-15T09:06:25;16.87;;;9.43;;
12986;SDS011;58897;51.960;5.582;2022-11-15T09:08:52;18.00;;;10.03;;
12986;SDS011;58897;51.960;5.582;2022-11-15T09:11:19;21.27;;;9.53;;
12986;SDS011;58897;51.960;5.582;2022-11-15T09:13:49;20.07;;;10.07;;
12986;SDS011;58897;51.960;5.582;2022-11-15T09:16:15;15.20;;;9.60;;
12986;SDS011;58897;51.960;5.582;2022-11-15T09:18:42;15.87;;;9.73;;
12986;SDS011;58897;51.960;5.582;2022-11-15T09:21:09;21.67;;;10.10;;
12986;SDS011;58897;51.960;5.582;2022-11-15T09:23:35;18.07;;;10.23;;
12986;SDS011;58897;51.960;5.582;2022-11-15T09:26:03;19.87;;;9.63;;
12986;SDS011;58897;51.960;5.582;2022-11-15T09:28:31;20.63;;;10.90;;
12986;SDS011;58897;51.960;5.582;2022-11-15T09:31:00;13.30;;;8.70;;
12986;SDS011;58897;51.960;5.582;2022-11-15T09:33:28;15.83;;;9.30;;
12986;SDS011;58897;51.960;5.582;2022-11-15T09:36:29;16.63;;;9.73;;
12986;SDS011;58897;51.960;5.582;2022-11-15T09:38:48;16.67;;;9.47;;
12986;SDS011;58897;51.960;5.582;2022-11-15T09:46:48;15.13;;;8.47;;
12986;SDS011;58897;51.960;5.582;2022-11-15T09:49:22;13.33;;;8.50;;
12986;SDS011;58897;51.960;5.582;2022-11-15T09:51:50;11.07;;;7.57;;
12986;SDS011;58897;51.960;5.582;2022-11-15T09:57:21;11.33;;;5.97;;
12986;SDS011;58897;51.960;5.582;2022-11-15T10:00:08;7.43;;;4.73;;
12986;SDS011;58897;51.960;5.582;2022-11-15T10:05:43;7.93;;;5.03;;
12986;SDS011;58897;51.960;5.582;2022-11-15T10:11:03;6.77;;;4.57;;
12986;SDS011;58897;51.960;5.582;2022-11-15T10:13:56;6.37;;;3.90;;
12986;SDS011;58897;51.960;5.582;2022-11-15T10:19:34;5.73;;;3.60;;
12986;SDS011;58897;51.960;5.582;2022-11-15T10:22:28;5.90;;;4.53;;
12986;SDS011;58897;51.960;5.582;2022-11-15T10:25:16;3.70;;;2.90;;
12986;SDS011;58897;51.960;5.582;2022-11-15T10:27:45;6.40;;;3.50;;
12986;SDS011;58897;51.960;5.582;2022-11-15T10:30:23;4.17;;;3.07;;
12986;SDS011;58897;51.960;5.582;2022-11-15T10:32:56;4.03;;;3.10;;
12986;SDS011;58897;51.960;5.582;2022-11-15T10:35:26;5.87;;;3.13;;
12986;SDS011;58897;51.960;5.582;2022-11-15T10:38:04;3.40;;;2.90;;
12986;SDS011;58897;51.960;5.582;2022-11-15T10:40:35;4.10;;;2.57;;
12986;SDS011;58897;51.960;5.582;2022-11-15T10:45:35;3.73;;;3.03;;
12986;SDS011;58897;51.960;5.582;2022-11-15T10:50:38;3.97;;;2.40;;
12986;SDS011;58897;51.960;5.582;2022-11-15T10:56:08;3.97;;;2.47;;
12986;SDS011;58897;51.960;5.582;2022-11-15T10:58:42;3.17;;;2.10;;
12986;SDS011;58897;51.960;5.582;2022-11-15T11:01:17;3.43;;;1.57;;
12986;SDS011;58897;51.960;5.582;2022-11-15T11:03:57;4.13;;;2.07;;
12986;SDS011;58897;51.960;5.582;2022-11-15T11:06:25;3.27;;;1.90;;
12986;SDS011;58897;51.960;5.582;2022-11-15T11:14:18;4.43;;;1.93;;
12986;SDS011;58897;51.960;5.582;2022-11-15T11:23:00;4.53;;;2.33;;
12986;SDS011;58897;51.960;5.582;2022-11-15T11:25:38;2.77;;;1.90;;
12986;SDS011;58897;51.960;5.582;2022-11-15T11:31:00;5.10;;;1.83;;
12986;SDS011;58897;51.960;5.582;2022-11-15T11:33:44;4.10;;;1.87;;
12986;SDS011;58897;51.960;5.582;2022-11-15T11:43:28;4.67;;;1.27;;
12986;SDS011;58897;51.960;5.582;2022-11-15T11:49:08;2.70;;;1.10;;
12986;SDS011;58897;51.960;5.582;2022-11-15T11:51:41;3.60;;;1.60;;
12986;SDS011;58897;51.960;5.582;2022-11-15T11:54:13;7.10;;;1.37;;
12986;SDS011;58897;51.960;5.582;2022-11-15T11:56:45;2.03;;;1.13;;
12986;SDS011;58897;51.960;5.582;2022-11-15T12:02:27;3.03;;;1.47;;
12986;SDS011;58897;51.960;5.582;2022-11-15T12:05:01;2.53;;;1.17;;
12986;SDS011;58897;51.960;5.582;2022-11-15T12:07:49;2.13;;;1.30;;
12986;SDS011;58897;51.960;5.582;2022-11-15T12:10:22;2.07;;;1.17;;
12986;SDS011;58897;51.960;5.582;2022-11-15T12:15:30;4.27;;;1.17;;
12986;SDS011;58897;51.960;5.582;2022-11-15T12:18:01;2.17;;;1.17;;
12986;SDS011;58897;51.960;5.582;2022-11-15T12:20:35;5.90;;;1.60;;
12986;SDS011;58897;51.960;5.582;2022-11-15T12:23:07;3.60;;;1.80;;
12986;SDS011;58897;51.960;5.582;2022-11-15T12:25:45;3.50;;;1.50;;
12986;SDS011;58897;51.960;5.582;2022-11-15T12:28:21;3.73;;;1.97;;
12986;SDS011;58897;51.960;5.582;2022-11-15T12:33:37;1.83;;;1.60;;
12986;SDS011;58897;51.960;5.582;2022-11-15T12:36:11;4.30;;;1.30;;
12986;SDS011;58897;51.960;5.582;2022-11-15T12:38:59;2.10;;;1.40;;
12986;SDS011;58897;51.960;5.582;2022-11-15T12:41:29;2.67;;;1.33;;
12986;SDS011;58897;51.960;5.582;2022-11-15T12:43:57;3.53;;;1.50;;
12986;SDS011;58897;51.960;5.582;2022-11-15T12:48:56;3.70;;;1.53;;
12986;SDS011;58897;51.960;5.582;2022-11-15T12:57:22;2.47;;;1.60;;
12986;SDS011;58897;51.960;5.582;2022-11-15T12:59:54;1.93;;;1.27;;
12986;SDS011;58897;51.960;5.582;2022-11-15T13:02:31;3.87;;;1.60;;
12986;SDS011;58897;51.960;5.582;2022-11-15T13:15:31;4.47;;;1.93;;
12986;SDS011;58897;51.960;5.582;2022-11-15T13:20:58;7.47;;;2.17;;
12986;SDS011;58897;51.960;5.582;2022-11-15T13:23:28;5.77;;;1.60;;
12986;SDS011;58897;51.960;5.582;2022-11-15T13:34:18;7.77;;;1.63;;
12986;SDS011;58897;51.960;5.582;2022-11-15T13:37:13;8.93;;;1.50;;
12986;SDS011;58897;51.960;5.582;2022-11-15T13:40:02;6.43;;;1.57;;
12986;SDS011;58897;51.960;5.582;2022-11-15T13:42:42;11.27;;;2.00;;
12986;SDS011;58897;51.960;5.582;2022-11-15T13:45:12;1.97;;;1.50;;
12986;SDS011;58897;51.960;5.582;2022-11-15T13:47:42;3.90;;;2.00;;
12986;SDS011;58897;51.960;5.582;2022-11-15T13:50:12;14.77;;;2.40;;
12986;SDS011;58897;51.960;5.582;2022-11-15T13:52:39;6.10;;;1.80;;
12986;SDS011;58897;51.960;5.582;2022-11-15T13:55:17;12.77;;;2.07;;
12986;SDS011;58897;51.960;5.582;2022-11-15T13:57:54;1.87;;;1.20;;
12986;SDS011;58897;51.960;5.582;2022-11-15T14:00:41;4.47;;;1.70;;
12986;SDS011;58897;51.960;5.582;2022-11-15T14:03:19;10.50;;;2.03;;
12986;SDS011;58897;51.960;5.582;2022-11-15T14:06:06;4.03;;;1.70;;
12986;SDS011;58897;51.960;5.582;2022-11-15T14:08:39;27.60;;;3.73;;
12986;SDS011;58897;51.960;5.582;2022-11-15T14:11:12;4.93;;;1.83;;
12986;SDS011;58897;51.960;5.582;2022-11-15T14:13:39;9.67;;;1.80;;
12986;SDS011;58897;51.960;5.582;2022-11-15T14:21:31;4.70;;;2.20;;
12986;SDS011;58897;51.960;5.582;2022-11-15T14:24:17;2.70;;;1.60;;
12986;SDS011;58897;51.960;5.582;2022-11-15T14:26:46;4.00;;;1.33;;
12986;SDS011;58897;51.960;5.582;2022-11-15T14:29:26;2.53;;;1.10;;
12986;SDS011;58897;51.960;5.582;2022-11-15T14:35:09;4.33;;;1.50;;
12986;SDS011;58897;51.960;5.582;2022-11-15T14:37:46;1.70;;;1.07;;
12986;SDS011;58897;51.960;5.582;2022-11-15T14:40:14;1.30;;;1.00;;
12986;SDS011;58897;51.960;5.582;2022-11-15T14:42:52;1.93;;;0.80;;
12986;SDS011;58897;51.960;5.582;2022-11-15T14:45:22;2.93;;;0.90;;
12986;SDS011;58897;51.960;5.582;2022-11-15T14:47:49;2.97;;;1.57;;
12986;SDS011;58897;51.960;5.582;2022-11-15T14:53:11;2.30;;;1.00;;
12986;SDS011;58897;51.960;5.582;2022-11-15T14:55:44;2.33;;;1.10;;
12986;SDS011;58897;51.960;5.582;2022-11-15T14:58:17;4.10;;;1.27;;
12986;SDS011;58897;51.960;5.582;2022-11-15T15:01:40;5.80;;;1.20;;
12986;SDS011;58897;51.960;5.582;2022-11-15T15:04:46;2.10;;;1.37;;
12986;SDS011;58897;51.960;5.582;2022-11-15T15:07:27;4.47;;;0.97;;
12986;SDS011;58897;51.960;5.582;2022-11-15T15:09:57;4.23;;;1.13;;
12986;SDS011;58897;51.960;5.582;2022-11-15T15:12:44;0.93;;;0.80;;
12986;SDS011;58897;51.960;5.582;2022-11-15T15:15:15;3.93;;;1.17;;
12986;SDS011;58897;51.960;5.582;2022-11-15T15:24:37;2.70;;;0.70;;
12986;SDS011;58897;51.960;5.582;2022-11-15T15:27:04;1.70;;;0.73;;
12986;SDS011;58897;51.960;5.582;2022-11-15T15:29:30;1.83;;;1.23;;
12986;SDS011;58897;51.960;5.582;2022-11-15T15:32:03;1.83;;;1.60;;
12986;SDS011;58897;51.960;5.582;2022-11-15T15:34:30;1.63;;;1.10;;
12986;SDS011;58897;51.960;5.582;2022-11-15T15:39:52;3.63;;;0.97;;
12986;SDS011;58897;51.960;5.582;2022-11-15T15:42:23;2.73;;;1.10;;
12986;SDS011;58897;51.960;5.582;2022-11-15T15:44:50;4.07;;;1.13;;
12986;SDS011;58897;51.960;5.582;2022-11-15T15:47:20;1.23;;;1.00;;
12986;SDS011;58897;51.960;5.582;2022-11-15T15:49:48;2.50;;;0.90;;
12986;SDS011;58897;51.960;5.582;2022-11-15T15:52:16;6.23;;;1.00;;
12986;SDS011;58897;51.960;5.582;2022-11-15T15:54:42;1.30;;;0.83;;
12986;SDS011;58897;51.960;5.582;2022-11-15T15:57:11;1.07;;;0.83;;
12986;SDS011;58897;51.960;5.582;2022-11-15T15:59:40;1.00;;;0.90;;
12986;SDS011;58897;51.960;5.582;2022-11-15T16:02:13;1.33;;;1.07;;
12986;SDS011;58897;51.960;5.582;2022-11-15T16:04:40;2.17;;;0.97;;
12986;SDS011;58897;51.960;5.582;2022-11-15T16:07:07;2.17;;;1.10;;
12986;SDS011;58897;51.960;5.582;2022-11-15T16:09:42;0.60;;;0.60;;
12986;SDS011;58897;51.960;5.582;2022-11-15T16:12:30;2.27;;;1.23;;
12986;SDS011;58897;51.960;5.582;2022-11-15T16:14:58;2.03;;;0.70;;
12986;SDS011;58897;51.960;5.582;2022-11-15T16:17:30;2.10;;;0.90;;
12986;SDS011;58897;51.960;5.582;2022-11-15T16:19:59;3.93;;;1.30;;
12986;SDS011;58897;51.960;5.582;2022-11-15T16:22:26;2.37;;;1.20;;
12986;SDS011;58897;51.960;5.582;2022-11-15T16:24:55;2.30;;;1.30;;
12986;SDS011;58897;51.960;5.582;2022-11-15T16:27:22;1.67;;;1.30;;
12986;SDS011;58897;51.960;5.582;2022-11-15T16:29:49;1.73;;;1.40;;
12986;SDS011;58897;51.960;5.582;2022-11-15T16:32:16;2.10;;;1.40;;
12986;SDS011;58897;51.960;5.582;2022-11-15T16:34:44;3.77;;;1.70;;
12986;SDS011;58897;51.960;5.582;2022-11-15T16:37:22;1.87;;;1.30;;
12986;SDS011;58897;51.960;5.582;2022-11-15T16:39:49;3.03;;;1.23;;
12986;SDS011;58897;51.960;5.582;2022-11-15T16:42:16;1.93;;;1.10;;
12986;SDS011;58897;51.960;5.582;2022-11-15T16:44:42;4.60;;;1.37;;
12986;SDS011;58897;51.960;5.582;2022-11-15T16:47:16;2.50;;;1.33;;
12986;SDS011;58897;51.960;5.582;2022-11-15T16:49:45;1.50;;;1.20;;
12986;SDS011;58897;51.960;5.582;2022-11-15T16:52:12;4.00;;;1.20;;
12986;SDS011;58897;51.960;5.582;2022-11-15T16:54:43;2.73;;;1.60;;
12986;SDS011;58897;51.960;5.582;2022-11-15T16:57:10;2.47;;;1.40;;
12986;SDS011;58897;51.960;5.582;2022-11-15T16:59:38;2.30;;;1.27;;
12986;SDS011;58897;51.960;5.582;2022-11-15T17:02:07;1.70;;;1.23;;
12986;SDS011;58897;51.960;5.582;2022-11-15T17:04:37;2.63;;;1.70;;
12986;SDS011;58897;51.960;5.582;2022-11-15T17:07:04;1.93;;;1.40;;
12986;SDS011;58897;51.960;5.582;2022-11-15T17:09:31;1.87;;;1.20;;
12986;SDS011;58897;51.960;5.582;2022-11-15T17:11:58;3.87;;;1.00;;
12986;SDS011;58897;51.960;5.582;2022-11-15T17:14:24;2.03;;;1.40;;
12986;SDS011;58897;51.960;5.582;2022-11-15T17:16:51;5.73;;;1.60;;
12986;SDS011;58897;51.960;5.582;2022-11-15T17:19:18;2.30;;;1.40;;
12986;SDS011;58897;51.960;5.582;2022-11-15T17:21:46;2.00;;;1.50;;
12986;SDS011;58897;51.960;5.582;2022-11-15T17:24:15;4.30;;;2.20;;
12986;SDS011;58897;51.960;5.582;2022-11-15T17:26:42;2.87;;;1.70;;
12986;SDS011;58897;51.960;5.582;2022-11-15T17:29:09;2.63;;;1.33;;